Chadron Municipal Airport
KCDR : now visible

Airfield :











YOU CAN JOIN US ON...

 
LOGIN :

Register | Disclaimer

   EN    FR    IT 

 









Legend :    VFR   Marginal VFR   IFR   Intensive IFR   Very Intensive IFR
Visi :
Ceiling :
>= 8 km
>= 3000ft
5 to 8 km
1000 to 3000 ft
1500m to 5 km
500 to 1000 ft
800 to 1500m
200 to 500 ft
< 800m
< 200 ft
Symbols :   Thunderstorms  Fog  Heavy snow  Heavy precipitations  Wind > 20 kt






- Airport Elevation : 3297 ft


KCDR - Chadron Municipal

CURRENT METAR :
  • 072053Z AUTO 29021G29KT 10SM FEW100 23/M04 A2978 RMK AO2 PK WND 27033/2043 SLP079 T02331039 58017

EXPIRED METARs :
  • 071953Z AUTO 27020G31KT 10SM FEW100 23/M02 A2980 RMK AO2 PK WND 28031/1951 SLP085 T02281022
  • 071853Z AUTO 30017G29KT 3SM HZ FEW095 22/M02 A2981 RMK AO2 PK WND 30029/1849 SLP090 T02171017 $

TAF KCDR
Valid from the 07 at 18:00 until the 08 at 18:00 UTC


071722Z 0718/0818 30015G22KT P6SM SKC
FM080100 29007KT P6SM SCT100
FM081400 34010KT P6SM BKN100



MET'MAP, your aeronautical weather chart ! - Copyright ORBIFLY December 2007 - Disclaimer

ORBIFLY MET'MAP TEAM :

Programming & Development : Alexandra Zaïnal
Concept & original design : Baudouin d'Aumeries
Assistance for programming : Marc-Olivier Méhu
Technical & hardware support : Manuel Goepfert

Contact : metmap@orbifly.com




SOURCES & CREDITS :

   NOAA       Earth
Advisory